createdAt,value
2022-11-07T00:00:50.598Z,8.32
2022-11-07T00:03:58.954Z,8.20
2022-11-07T00:07:08.409Z,8.10
2022-11-07T00:10:16.945Z,7.95
2022-11-07T00:13:27.330Z,7.91
2022-11-07T00:16:37.258Z,7.91
2022-11-07T00:19:45.833Z,7.98
2022-11-07T00:22:54.163Z,7.95
2022-11-07T00:26:03.550Z,7.84
2022-11-07T00:29:15.179Z,7.72
2022-11-07T00:32:24.724Z,7.70
2022-11-07T00:35:33.314Z,7.64
2022-11-07T00:38:41.601Z,7.84
2022-11-07T00:41:50.491Z,8.04
2022-11-07T00:44:58.675Z,8.15
2022-11-07T00:48:08.634Z,8.46
2022-11-07T00:51:19.537Z,8.53
2022-11-07T00:54:27.889Z,8.73
2022-11-07T00:57:36.503Z,8.93
2022-11-07T01:00:44.861Z,9.19
2022-11-07T01:04:12.581Z,9.26
2022-11-07T01:07:20.910Z,9.36
2022-11-07T01:10:29.262Z,9.28
2022-11-07T01:13:38.556Z,9.28
2022-11-07T01:16:47.576Z,9.27
2022-11-07T01:19:57.549Z,9.18
2022-11-07T01:23:06.039Z,9.05
2022-11-07T01:26:16.076Z,8.99
2022-11-07T01:29:24.801Z,8.79
2022-11-07T01:32:33.395Z,8.65
2022-11-07T01:35:47.015Z,8.62
2022-11-07T01:38:55.744Z,8.60
2022-11-07T01:42:04.838Z,8.32
2022-11-07T01:45:21.532Z,8.22
2022-11-07T01:48:29.996Z,8.25
2022-11-07T01:51:47.640Z,8.16
2022-11-07T01:55:02.600Z,8.00
2022-11-07T01:58:11.635Z,7.93
2022-11-07T02:01:20.197Z,7.82
2022-11-07T02:04:31.858Z,7.83
2022-11-07T02:07:42.801Z,7.64
2022-11-07T02:10:52.835Z,7.64
2022-11-07T02:14:01.096Z,7.76
2022-11-07T02:17:10.192Z,7.90
2022-11-07T02:20:18.994Z,7.97
2022-11-07T02:23:42.306Z,8.02
2022-11-07T02:26:55.045Z,8.08
2022-11-07T02:30:09.836Z,8.21
2022-11-07T02:33:20.242Z,8.20
2022-11-07T02:36:29.035Z,8.12
2022-11-07T02:39:37.577Z,8.09
2022-11-07T02:42:48.839Z,7.98
2022-11-07T02:45:59.663Z,7.92
2022-11-07T02:49:08.090Z,7.95
2022-11-07T02:52:16.431Z,7.98
2022-11-07T02:55:24.832Z,8.19
2022-11-07T02:58:35.005Z,8.18
2022-11-07T03:01:43.488Z,8.31
2022-11-07T03:04:52.256Z,8.38
2022-11-07T03:08:00.728Z,8.49
2022-11-07T03:11:09.275Z,8.64
2022-11-07T03:14:19.211Z,8.72
2022-11-07T03:17:28.018Z,8.85
2022-11-07T03:20:36.336Z,8.76
2022-11-07T03:23:44.593Z,8.75
2022-11-07T03:26:53.047Z,8.85
2022-11-07T03:30:05.516Z,8.78
2022-11-07T03:33:15.250Z,8.79
2022-11-07T03:36:23.845Z,8.80
2022-11-07T03:39:32.072Z,9.03
2022-11-07T03:42:41.361Z,9.04
2022-11-07T03:45:51.089Z,9.31
2022-11-07T03:49:00.408Z,9.28
2022-11-07T03:52:08.892Z,9.25
2022-11-07T03:55:18.216Z,9.24
2022-11-07T03:58:27.812Z,9.16
2022-11-07T04:01:37.799Z,9.03
2022-11-07T04:04:46.125Z,8.80
2022-11-07T04:07:54.427Z,8.67
2022-11-07T04:11:02.791Z,8.55
2022-11-07T04:14:28.408Z,8.51
2022-11-07T04:17:38.192Z,8.47
2022-11-07T04:20:46.434Z,8.45
2022-11-07T04:23:54.622Z,8.50
2022-11-07T04:27:20.463Z,8.65
2022-11-07T04:30:29.932Z,8.75
2022-11-07T04:33:39.477Z,8.64
2022-11-07T04:36:47.659Z,8.73
2022-11-07T04:39:55.810Z,8.48
2022-11-07T04:43:08.983Z,8.47
2022-11-07T04:46:17.751Z,8.28
2022-11-07T04:49:27.302Z,8.09
2022-11-07T04:52:35.651Z,7.98
2022-11-07T04:55:44.868Z,7.84
2022-11-07T04:58:53.077Z,7.72
2022-11-07T05:02:01.687Z,7.64
2022-11-07T05:05:12.432Z,7.64
2022-11-07T05:08:20.964Z,7.57
2022-11-07T05:11:29.472Z,7.61
2022-11-07T05:14:37.754Z,7.64
2022-11-07T05:17:46.544Z,7.56
2022-11-07T05:20:57.696Z,7.55
2022-11-07T05:24:07.004Z,7.49
2022-11-07T05:27:20.099Z,7.25
2022-11-07T05:30:28.662Z,7.25
2022-11-07T05:33:37.495Z,6.94
2022-11-07T05:36:47.160Z,7.20
2022-11-07T05:39:55.404Z,7.21
2022-11-07T05:43:05.631Z,7.13
2022-11-07T05:46:14.464Z,7.14
2022-11-07T05:49:22.670Z,7.27
2022-11-07T05:52:33.431Z,7.44
2022-11-07T05:55:41.932Z,7.23
2022-11-07T05:58:50.186Z,7.19
2022-11-07T06:01:58.622Z,7.34
2022-11-07T06:05:08.279Z,7.19
2022-11-07T06:08:19.187Z,7.30
2022-11-07T06:11:27.435Z,7.13
2022-11-07T06:14:35.664Z,7.23
2022-11-07T06:17:43.886Z,7.26
2022-11-07T06:20:52.140Z,7.15
2022-11-07T06:24:01.915Z,7.11
2022-11-07T06:27:10.300Z,7.28
2022-11-07T06:30:18.718Z,7.22
2022-11-07T06:33:27.239Z,7.34
2022-11-07T06:36:35.689Z,7.09
2022-11-07T06:39:45.440Z,7.22
2022-11-07T06:42:53.697Z,7.18
2022-11-07T06:46:07.064Z,7.10
2022-11-07T06:49:15.793Z,7.02
2022-11-07T06:52:24.695Z,6.98
2022-11-07T06:55:38.923Z,6.94
2022-11-07T06:58:47.416Z,6.96
2022-11-07T07:01:55.779Z,7.01
2022-11-07T07:05:04.053Z,7.02
2022-11-07T07:08:14.800Z,7.19
2022-11-07T07:11:24.547Z,7.49
2022-11-07T07:14:33.105Z,7.59
2022-11-07T07:17:41.423Z,7.66
2022-11-07T07:20:51.605Z,7.71
2022-11-07T07:23:59.814Z,7.82
2022-11-07T07:27:10.988Z,8.00
2022-11-07T07:30:19.346Z,8.23
2022-11-07T07:33:28.916Z,8.33
2022-11-07T07:36:37.139Z,8.57
2022-11-07T07:39:45.321Z,8.74
2022-11-07T07:42:57.016Z,8.96
2022-11-07T07:46:08.852Z,9.14
2022-11-07T07:49:17.053Z,9.27
2022-11-07T07:52:25.473Z,9.60
2022-11-07T07:55:33.764Z,9.93
2022-11-07T07:58:43.308Z,10.19
2022-11-07T08:01:56.586Z,10.43
2022-11-07T08:05:06.532Z,10.56
2022-11-07T08:08:14.745Z,10.74
2022-11-07T08:11:22.988Z,10.87
2022-11-07T08:14:32.863Z,11.01
2022-11-07T08:17:41.803Z,11.04
2022-11-07T08:20:52.335Z,11.12
2022-11-07T08:24:00.966Z,11.16
2022-11-07T08:27:09.172Z,11.33
2022-11-07T08:30:19.207Z,11.50
2022-11-07T08:33:28.287Z,11.60
2022-11-07T08:36:37.867Z,11.70
2022-11-07T08:39:46.514Z,11.81
2022-11-07T08:43:00.343Z,12.03
2022-11-07T08:46:10.083Z,12.14
2022-11-07T08:49:18.370Z,12.34
2022-11-07T08:52:26.548Z,12.35
2022-11-07T08:55:34.740Z,12.38
2022-11-07T08:58:42.895Z,12.53
2022-11-07T09:05:20.912Z,12.64
2022-11-07T09:08:29.378Z,12.74
2022-11-07T09:11:37.604Z,12.64
2022-11-07T09:14:46.354Z,12.83
2022-11-07T09:17:55.997Z,12.81
2022-11-07T09:21:04.318Z,12.96
2022-11-07T09:24:13.611Z,12.94
2022-11-07T09:27:22.473Z,13.17
2022-11-07T09:30:30.912Z,13.28
2022-11-07T09:33:40.622Z,13.30
2022-11-07T09:36:48.880Z,13.41
2022-11-07T09:39:57.102Z,13.50
2022-11-07T09:43:39.775Z,13.58
2022-11-07T09:46:58.692Z,13.56
2022-11-07T09:50:16.409Z,13.61
2022-11-07T09:53:33.976Z,13.78
2022-11-07T09:56:45.087Z,13.86
2022-11-07T09:59:58.797Z,13.99
2022-11-07T10:03:09.965Z,14.10
2022-11-07T10:06:26.715Z,14.09
2022-11-07T10:09:47.779Z,14.26
2022-11-07T10:13:33.875Z,14.26
2022-11-07T10:17:00.421Z,14.29
2022-11-07T10:20:24.964Z,14.19
2022-11-07T10:23:53.291Z,14.14
2022-11-07T10:27:03.608Z,14.39
2022-11-07T10:30:18.442Z,14.49
2022-11-07T10:33:41.163Z,14.48
2022-11-07T10:36:50.193Z,14.56
2022-11-07T10:39:59.837Z,14.51
2022-11-07T10:43:18.229Z,14.50
2022-11-07T10:46:38.970Z,14.45
2022-11-07T10:50:02.607Z,14.50
2022-11-07T10:53:25.079Z,14.33
2022-11-07T10:56:46.418Z,14.20
2022-11-07T11:00:00.177Z,14.22
2022-11-07T11:03:29.053Z,14.39
2022-11-07T11:06:44.974Z,14.41
2022-11-07T11:09:56.427Z,14.61
2022-11-07T11:13:06.573Z,14.76
2022-11-07T11:16:32.345Z,14.97
2022-11-07T11:19:52.494Z,14.96
2022-11-07T11:23:02.343Z,14.87
2022-11-07T11:26:22.932Z,15.02
2022-11-07T11:29:41.564Z,15.12
2022-11-07T11:32:58.389Z,15.04
2022-11-07T11:36:15.912Z,14.92
2022-11-07T11:39:34.802Z,14.57
2022-11-07T11:42:52.792Z,14.43
2022-11-07T11:46:13.623Z,14.32
2022-11-07T11:49:33.176Z,14.29
2022-11-07T11:52:42.198Z,14.30
2022-11-07T11:56:01.503Z,14.46
2022-11-07T11:59:57.872Z,14.43
2022-11-07T12:03:43.511Z,14.48
2022-11-07T12:07:01.660Z,14.65
2022-11-07T12:10:23.459Z,14.77
2022-11-07T12:13:44.700Z,14.77
2022-11-07T12:17:05.457Z,14.98
2022-11-07T12:20:26.793Z,15.08
2022-11-07T12:24:01.538Z,14.99
2022-11-07T12:27:25.678Z,15.00
2022-11-07T12:30:52.738Z,14.93
2022-11-07T12:34:18.634Z,14.83
2022-11-07T12:38:03.632Z,14.89
2022-11-07T12:41:29.590Z,14.84
2022-11-07T12:45:00.619Z,14.85
2022-11-07T12:48:54.820Z,14.92
2022-11-07T12:52:19.145Z,14.91
2022-11-07T12:55:38.042Z,14.84
2022-11-07T12:58:48.952Z,14.84
2022-11-07T13:02:13.168Z,14.83
2022-11-07T13:05:50.053Z,14.88
2022-11-07T13:09:15.303Z,14.81
2022-11-07T13:12:36.126Z,14.82
2022-11-07T13:16:13.660Z,14.92
2022-11-07T13:19:33.253Z,15.00
2022-11-07T13:22:42.632Z,15.06
2022-11-07T13:26:03.988Z,14.89
2022-11-07T13:29:27.661Z,14.78
2022-11-07T13:32:40.164Z,14.68
2022-11-07T13:35:55.851Z,14.57
2022-11-07T13:39:08.658Z,14.44
2022-11-07T13:42:20.521Z,14.44
2022-11-07T13:45:38.398Z,14.53
2022-11-07T13:48:52.733Z,14.44
2022-11-07T13:52:09.512Z,14.22
2022-11-07T13:55:25.227Z,14.26
2022-11-07T13:58:40.457Z,14.12
2022-11-07T14:01:57.779Z,14.04
2022-11-07T14:05:16.350Z,13.84
2022-11-07T14:08:32.546Z,13.72
2022-11-07T14:11:41.956Z,13.78
2022-11-07T14:14:54.425Z,13.67
2022-11-07T14:18:05.090Z,13.74
2022-11-07T14:21:21.994Z,13.53
2022-11-07T14:24:32.702Z,13.54
2022-11-07T14:27:47.556Z,13.50
2022-11-07T14:30:56.024Z,13.50
2022-11-07T14:34:20.810Z,13.40
2022-11-07T14:37:29.194Z,13.28
2022-11-07T14:40:38.994Z,13.19
2022-11-07T14:43:48.837Z,13.03
2022-11-07T14:46:59.334Z,13.07
2022-11-07T14:50:17.102Z,12.81
2022-11-07T14:53:31.916Z,12.75
2022-11-07T14:56:46.249Z,12.50
2022-11-07T14:59:55.261Z,12.38
2022-11-07T15:03:03.682Z,12.26
2022-11-07T15:06:25.058Z,12.15
2022-11-07T15:09:35.624Z,11.96
2022-11-07T15:12:52.556Z,11.80
2022-11-07T15:16:05.407Z,11.71
2022-11-07T15:19:20.446Z,11.60
2022-11-07T15:22:36.833Z,11.45
2022-11-07T15:25:55.952Z,11.19
2022-11-07T15:29:16.596Z,10.97
2022-11-07T15:32:27.690Z,10.78
2022-11-07T15:35:44.110Z,10.59
2022-11-07T15:38:55.868Z,10.41
2022-11-07T15:42:04.345Z,10.20
2022-11-07T15:45:14.826Z,10.03
2022-11-07T15:48:29.514Z,9.88
2022-11-07T15:51:38.050Z,9.76
2022-11-07T15:54:48.302Z,9.62
2022-11-07T15:57:56.631Z,9.50
2022-11-07T16:01:04.996Z,9.46
2022-11-07T16:04:13.523Z,9.34
2022-11-07T16:07:22.068Z,9.22
2022-11-07T16:10:33.445Z,9.10
2022-11-07T16:13:41.731Z,8.96
2022-11-07T16:16:50.821Z,8.80
2022-11-07T16:20:01.539Z,8.73
2022-11-07T16:23:11.180Z,8.76
2022-11-07T16:26:28.974Z,8.81
2022-11-07T16:29:37.280Z,8.68
2022-11-07T16:32:45.704Z,8.49
2022-11-07T16:35:57.828Z,8.38
2022-11-07T16:39:08.993Z,8.41
2022-11-07T16:42:18.670Z,8.25
2022-11-07T16:45:27.495Z,8.15
2022-11-07T16:48:39.741Z,8.07
2022-11-07T16:51:49.068Z,7.99
2022-11-07T16:54:59.630Z,7.92
2022-11-07T16:58:28.733Z,7.88
2022-11-07T17:01:38.311Z,7.86
2022-11-07T17:04:47.172Z,7.85
2022-11-07T17:07:56.080Z,7.79
2022-11-07T17:11:05.115Z,7.80
2022-11-07T17:14:15.349Z,7.70
2022-11-07T17:17:24.097Z,7.55
2022-11-07T17:24:04.183Z,7.61
2022-11-07T17:27:22.864Z,7.73
2022-11-07T17:30:34.474Z,7.80
2022-11-07T17:33:43.445Z,7.76
2022-11-07T17:36:56.260Z,7.65
2022-11-07T17:40:05.232Z,7.67
2022-11-07T17:43:13.608Z,7.70
2022-11-07T17:46:27.354Z,7.79
2022-11-07T17:49:35.883Z,7.88
2022-11-07T17:52:44.165Z,7.82
2022-11-07T17:55:52.566Z,7.84
2022-11-07T17:59:04.167Z,7.58
2022-11-07T18:02:18.672Z,7.65
2022-11-07T18:05:32.976Z,7.60
2022-11-07T18:08:52.348Z,7.48
2022-11-07T18:12:01.293Z,7.41
2022-11-07T18:15:12.757Z,7.29
2022-11-07T18:18:22.733Z,7.39
2022-11-07T18:21:31.135Z,7.36
2022-11-07T18:24:39.399Z,7.20
2022-11-07T18:27:49.381Z,7.25
2022-11-07T18:31:04.372Z,7.28
2022-11-07T18:34:15.580Z,7.30
2022-11-07T18:37:25.950Z,7.21
2022-11-07T18:40:34.202Z,7.20
2022-11-07T18:43:42.610Z,7.06
2022-11-07T18:46:50.926Z,7.03
2022-11-07T18:50:00.571Z,7.07
2022-11-07T18:53:09.289Z,7.07
2022-11-07T18:56:20.203Z,7.01
2022-11-07T18:59:30.702Z,6.78
2022-11-07T19:02:38.979Z,6.74
2022-11-07T19:05:49.960Z,6.56
2022-11-07T19:08:58.777Z,6.60
2022-11-07T19:12:08.012Z,6.54
2022-11-07T19:15:16.405Z,6.60
2022-11-07T19:18:24.871Z,6.32
2022-11-07T19:21:34.581Z,6.35
2022-11-07T19:24:42.739Z,6.43
2022-11-07T19:27:51.680Z,6.34
2022-11-07T19:31:04.319Z,6.25
2022-11-07T19:34:12.702Z,6.31
2022-11-07T19:37:26.664Z,6.28
2022-11-07T19:40:36.149Z,6.35
2022-11-07T19:43:48.442Z,6.32
2022-11-07T19:46:57.638Z,6.25
2022-11-07T19:50:06.960Z,6.19
2022-11-07T19:53:17.384Z,6.18
2022-11-07T19:56:29.144Z,6.14
2022-11-07T19:59:37.449Z,6.19
2022-11-07T20:02:48.416Z,6.25
2022-11-07T20:05:56.803Z,6.13
2022-11-07T20:09:11.194Z,6.17
2022-11-07T20:12:19.608Z,6.08
2022-11-07T20:15:28.082Z,6.00
2022-11-07T20:18:36.783Z,5.92
2022-11-07T20:21:45.391Z,5.81
2022-11-07T20:24:55.353Z,5.75
2022-11-07T20:28:03.627Z,5.83
2022-11-07T20:31:13.467Z,5.87
2022-11-07T20:34:22.082Z,5.88
2022-11-07T20:37:30.404Z,5.84
2022-11-07T20:40:40.642Z,5.79
2022-11-07T20:43:49.069Z,5.79
2022-11-07T20:46:57.714Z,5.83
2022-11-07T20:50:07.585Z,5.83
2022-11-07T20:53:16.580Z,5.80
2022-11-07T20:56:29.517Z,5.66
2022-11-07T20:59:39.343Z,5.60
2022-11-07T21:02:47.724Z,5.57
2022-11-07T21:05:56.545Z,5.46
2022-11-07T21:09:06.821Z,5.46
2022-11-07T21:12:16.441Z,5.50
2022-11-07T21:15:24.655Z,5.58
2022-11-07T21:18:33.496Z,5.52
2022-11-07T21:21:42.157Z,5.54
2022-11-07T21:24:50.709Z,5.41
2022-11-07T21:28:00.773Z,5.39
2022-11-07T21:31:12.681Z,5.39
2022-11-07T21:34:21.086Z,5.37
2022-11-07T21:37:29.379Z,5.42
2022-11-07T21:40:38.680Z,5.38
2022-11-07T21:43:51.149Z,5.36
2022-11-07T21:47:00.223Z,5.38
2022-11-07T21:50:30.733Z,5.37
2022-11-07T21:53:38.509Z,5.31
2022-11-07T21:56:46.837Z,5.26
2022-11-07T21:59:59.101Z,5.22
2022-11-07T22:03:07.987Z,5.12
2022-11-07T22:06:19.450Z,5.11
2022-11-07T22:09:28.598Z,5.13
2022-11-07T22:12:36.916Z,5.15
2022-11-07T22:15:46.709Z,5.11
2022-11-07T22:18:55.312Z,5.17
2022-11-07T22:22:04.149Z,5.12
2022-11-07T22:25:12.591Z,5.18
2022-11-07T22:28:21.161Z,5.09
2022-11-07T22:31:32.500Z,5.05
2022-11-07T22:34:40.958Z,5.04
2022-11-07T22:37:49.466Z,4.96
2022-11-07T22:40:58.104Z,4.92
2022-11-07T22:44:06.800Z,4.94
2022-11-07T22:47:16.807Z,5.04
2022-11-07T22:50:25.205Z,4.96
2022-11-07T22:53:34.283Z,4.87
2022-11-07T22:56:43.153Z,4.88
2022-11-07T22:59:51.703Z,4.96
2022-11-07T23:03:01.719Z,5.01
2022-11-07T23:06:10.502Z,4.87
2022-11-07T23:09:19.433Z,4.86
2022-11-07T23:12:27.808Z,4.81
2022-11-07T23:15:36.092Z,4.92
2022-11-07T23:18:45.756Z,4.80
2022-11-07T23:21:57.558Z,4.63
2022-11-07T23:25:08.787Z,4.74
2022-11-07T23:28:18.102Z,4.61
2022-11-07T23:31:27.493Z,4.56
2022-11-07T23:34:37.762Z,4.50
2022-11-07T23:37:46.523Z,4.47
2022-11-07T23:40:55.008Z,4.41
2022-11-07T23:44:03.521Z,4.46
2022-11-07T23:47:25.832Z,4.46
2022-11-07T23:50:53.461Z,4.54
2022-11-07T23:54:19.596Z,4.70
2022-11-07T23:57:27.975Z,4.80
